Terminal Aerodrome Forecast
Issued by NWS San Angelo, TX

Home | Current Version | Previous Version | Text Only | Print | Product List | Glossary On
Versions: 1 2 3 4 5 6 7 8 9 10 11 12 13 14 15 16 17 18 19
334
FTUS44 KSJT 190731 AAA
TAFSJT
TAF AMD
KSJT 190731Z 1908/2006 20005KT 2SM BR SKC
      TEMPO 1911/1913 1/2SM FG VV002
     FM191600 23013G20KT P6SM SKC
     FM191800 23018G28KT P6SM SCT250=

USA.gov is the U.S. government's official web portal to all federal, state and local government web resources and services.